sensor_id;sensor_type;location;lat;lon;timestamp;P1;durP1;ratioP1;P2;durP2;ratioP2
58360;SDS011;44164;44.954;10.068;2023-04-29T00:01:59;2.00;;;1.08;;
58360;SDS011;44164;44.954;10.068;2023-04-29T00:04:26;3.83;;;1.38;;
58360;SDS011;44164;44.954;10.068;2023-04-29T00:06:52;2.40;;;1.40;;
58360;SDS011;44164;44.954;10.068;2023-04-29T00:09:18;4.13;;;1.50;;
58360;SDS011;44164;44.954;10.068;2023-04-29T00:11:44;3.70;;;1.45;;
58360;SDS011;44164;44.954;10.068;2023-04-29T00:14:11;3.13;;;1.23;;
58360;SDS011;44164;44.954;10.068;2023-04-29T00:16:38;3.08;;;1.70;;
58360;SDS011;44164;44.954;10.068;2023-04-29T00:19:04;2.88;;;1.23;;
58360;SDS011;44164;44.954;10.068;2023-04-29T00:21:30;3.53;;;1.33;;
58360;SDS011;44164;44.954;10.068;2023-04-29T00:23:57;2.15;;;1.35;;
58360;SDS011;44164;44.954;10.068;2023-04-29T00:26:24;2.60;;;1.23;;
58360;SDS011;44164;44.954;10.068;2023-04-29T00:28:51;3.17;;;1.20;;
58360;SDS011;44164;44.954;10.068;2023-04-29T00:31:17;4.45;;;1.30;;
58360;SDS011;44164;44.954;10.068;2023-04-29T00:33:43;2.88;;;1.30;;
58360;SDS011;44164;44.954;10.068;2023-04-29T00:36:10;2.50;;;1.00;;
58360;SDS011;44164;44.954;10.068;2023-04-29T00:38:36;1.95;;;1.10;;
58360;SDS011;44164;44.954;10.068;2023-04-29T00:41:02;2.72;;;1.08;;
58360;SDS011;44164;44.954;10.068;2023-04-29T00:43:29;6.38;;;1.52;;
58360;SDS011;44164;44.954;10.068;2023-04-29T00:45:55;3.17;;;1.55;;
58360;SDS011;44164;44.954;10.068;2023-04-29T00:48:22;2.05;;;1.25;;
58360;SDS011;44164;44.954;10.068;2023-04-29T00:50:48;2.50;;;1.20;;
58360;SDS011;44164;44.954;10.068;2023-04-29T00:53:15;2.88;;;1.35;;
58360;SDS011;44164;44.954;10.068;2023-04-29T00:55:43;2.15;;;0.98;;
58360;SDS011;44164;44.954;10.068;2023-04-29T00:58:12;3.00;;;1.60;;
58360;SDS011;44164;44.954;10.068;2023-04-29T01:00:38;3.42;;;1.08;;
58360;SDS011;44164;44.954;10.068;2023-04-29T01:03:06;2.95;;;1.10;;
58360;SDS011;44164;44.954;10.068;2023-04-29T01:05:33;3.10;;;1.65;;
58360;SDS011;44164;44.954;10.068;2023-04-29T01:10:38;4.43;;;1.52;;
58360;SDS011;44164;44.954;10.068;2023-04-29T01:15:48;2.15;;;1.27;;
58360;SDS011;44164;44.954;10.068;2023-04-29T01:18:28;3.08;;;1.45;;
58360;SDS011;44164;44.954;10.068;2023-04-29T01:21:01;3.33;;;1.38;;
58360;SDS011;44164;44.954;10.068;2023-04-29T01:23:28;3.63;;;1.60;;
58360;SDS011;44164;44.954;10.068;2023-04-29T01:25:55;2.60;;;1.30;;
58360;SDS011;44164;44.954;10.068;2023-04-29T01:28:39;4.35;;;1.55;;
58360;SDS011;44164;44.954;10.068;2023-04-29T01:31:18;2.17;;;1.27;;
58360;SDS011;44164;44.954;10.068;2023-04-29T01:42:15;4.55;;;1.45;;
58360;SDS011;44164;44.954;10.068;2023-04-29T01:44:54;3.95;;;1.80;;
58360;SDS011;44164;44.954;10.068;2023-04-29T01:47:23;3.38;;;1.50;;
58360;SDS011;44164;44.954;10.068;2023-04-29T01:49:52;2.88;;;1.65;;
58360;SDS011;44164;44.954;10.068;2023-04-29T01:52:19;4.40;;;1.55;;
58360;SDS011;44164;44.954;10.068;2023-04-29T01:54:54;4.55;;;1.60;;
58360;SDS011;44164;44.954;10.068;2023-04-29T01:57:21;4.90;;;1.40;;
58360;SDS011;44164;44.954;10.068;2023-04-29T02:00:09;3.42;;;1.45;;
58360;SDS011;44164;44.954;10.068;2023-04-29T02:02:40;2.20;;;1.35;;
58360;SDS011;44164;44.954;10.068;2023-04-29T02:05:17;2.83;;;1.33;;
58360;SDS011;44164;44.954;10.068;2023-04-29T02:07:51;3.42;;;1.45;;
58360;SDS011;44164;44.954;10.068;2023-04-29T02:10:17;3.10;;;1.60;;
58360;SDS011;44164;44.954;10.068;2023-04-29T02:12:46;1.90;;;1.20;;
58360;SDS011;44164;44.954;10.068;2023-04-29T02:15:12;2.92;;;1.30;;
58360;SDS011;44164;44.954;10.068;2023-04-29T02:17:39;2.80;;;1.50;;
58360;SDS011;44164;44.954;10.068;2023-04-29T02:20:06;2.05;;;1.30;;
58360;SDS011;44164;44.954;10.068;2023-04-29T02:22:32;2.63;;;1.33;;
58360;SDS011;44164;44.954;10.068;2023-04-29T02:24:58;3.88;;;1.85;;
58360;SDS011;44164;44.954;10.068;2023-04-29T02:27:25;2.28;;;1.33;;
58360;SDS011;44164;44.954;10.068;2023-04-29T02:29:51;3.88;;;1.67;;
58360;SDS011;44164;44.954;10.068;2023-04-29T02:32:18;3.30;;;1.58;;
58360;SDS011;44164;44.954;10.068;2023-04-29T02:34:45;2.50;;;1.20;;
58360;SDS011;44164;44.954;10.068;2023-04-29T02:37:11;2.75;;;1.42;;
58360;SDS011;44164;44.954;10.068;2023-04-29T02:39:38;2.38;;;1.23;;
58360;SDS011;44164;44.954;10.068;2023-04-29T02:42:06;2.72;;;1.42;;
58360;SDS011;44164;44.954;10.068;2023-04-29T02:44:35;2.95;;;1.50;;
58360;SDS011;44164;44.954;10.068;2023-04-29T02:47:01;3.15;;;1.45;;
58360;SDS011;44164;44.954;10.068;2023-04-29T02:49:28;4.10;;;1.63;;
58360;SDS011;44164;44.954;10.068;2023-04-29T02:51:55;3.08;;;1.30;;
58360;SDS011;44164;44.954;10.068;2023-04-29T02:54:21;3.60;;;1.58;;
58360;SDS011;44164;44.954;10.068;2023-04-29T02:56:47;2.17;;;1.33;;
58360;SDS011;44164;44.954;10.068;2023-04-29T02:59:13;3.25;;;1.38;;
58360;SDS011;44164;44.954;10.068;2023-04-29T03:01:40;3.78;;;1.40;;
58360;SDS011;44164;44.954;10.068;2023-04-29T03:04:06;2.78;;;1.27;;
58360;SDS011;44164;44.954;10.068;2023-04-29T03:06:33;2.90;;;1.50;;
58360;SDS011;44164;44.954;10.068;2023-04-29T03:08:59;2.17;;;1.17;;
58360;SDS011;44164;44.954;10.068;2023-04-29T03:11:25;2.75;;;1.48;;
58360;SDS011;44164;44.954;10.068;2023-04-29T03:13:51;3.10;;;1.67;;
58360;SDS011;44164;44.954;10.068;2023-04-29T03:16:17;2.67;;;1.50;;
58360;SDS011;44164;44.954;10.068;2023-04-29T03:18:43;3.05;;;1.20;;
58360;SDS011;44164;44.954;10.068;2023-04-29T03:21:10;3.63;;;1.30;;
58360;SDS011;44164;44.954;10.068;2023-04-29T03:23:36;2.80;;;1.48;;
58360;SDS011;44164;44.954;10.068;2023-04-29T03:26:04;3.97;;;1.40;;
58360;SDS011;44164;44.954;10.068;2023-04-29T03:28:31;3.67;;;1.60;;
58360;SDS011;44164;44.954;10.068;2023-04-29T03:30:57;3.97;;;1.50;;
58360;SDS011;44164;44.954;10.068;2023-04-29T03:33:24;2.03;;;1.03;;
58360;SDS011;44164;44.954;10.068;2023-04-29T03:35:50;3.10;;;1.60;;
58360;SDS011;44164;44.954;10.068;2023-04-29T03:38:22;3.10;;;1.50;;
58360;SDS011;44164;44.954;10.068;2023-04-29T03:40:52;2.38;;;1.33;;
58360;SDS011;44164;44.954;10.068;2023-04-29T03:43:18;2.92;;;1.38;;
58360;SDS011;44164;44.954;10.068;2023-04-29T03:45:45;2.80;;;1.17;;
58360;SDS011;44164;44.954;10.068;2023-04-29T03:48:14;3.05;;;1.20;;
58360;SDS011;44164;44.954;10.068;2023-04-29T03:50:40;2.60;;;1.30;;
58360;SDS011;44164;44.954;10.068;2023-04-29T03:53:07;2.88;;;1.17;;
58360;SDS011;44164;44.954;10.068;2023-04-29T03:55:33;2.75;;;1.33;;
58360;SDS011;44164;44.954;10.068;2023-04-29T03:58:00;2.78;;;1.50;;
58360;SDS011;44164;44.954;10.068;2023-04-29T04:00:26;2.88;;;1.50;;
58360;SDS011;44164;44.954;10.068;2023-04-29T04:02:56;2.97;;;1.67;;
58360;SDS011;44164;44.954;10.068;2023-04-29T04:05:23;3.40;;;1.42;;
58360;SDS011;44164;44.954;10.068;2023-04-29T04:07:54;3.33;;;1.55;;
58360;SDS011;44164;44.954;10.068;2023-04-29T04:10:35;2.15;;;1.33;;
58360;SDS011;44164;44.954;10.068;2023-04-29T04:13:07;2.83;;;1.50;;
58360;SDS011;44164;44.954;10.068;2023-04-29T04:15:33;2.72;;;1.17;;
58360;SDS011;44164;44.954;10.068;2023-04-29T04:17:59;3.28;;;1.85;;
58360;SDS011;44164;44.954;10.068;2023-04-29T04:20:25;2.50;;;1.30;;
58360;SDS011;44164;44.954;10.068;2023-04-29T04:22:51;2.78;;;1.55;;
58360;SDS011;44164;44.954;10.068;2023-04-29T04:25:26;2.88;;;1.30;;
58360;SDS011;44164;44.954;10.068;2023-04-29T04:27:57;1.80;;;1.08;;
58360;SDS011;44164;44.954;10.068;2023-04-29T04:30:52;3.63;;;1.45;;
58360;SDS011;44164;44.954;10.068;2023-04-29T04:33:18;2.30;;;1.52;;
58360;SDS011;44164;44.954;10.068;2023-04-29T04:35:45;2.10;;;1.15;;
58360;SDS011;44164;44.954;10.068;2023-04-29T04:38:11;2.17;;;1.08;;
58360;SDS011;44164;44.954;10.068;2023-04-29T04:40:41;3.63;;;1.40;;
58360;SDS011;44164;44.954;10.068;2023-04-29T04:43:25;3.88;;;1.70;;
58360;SDS011;44164;44.954;10.068;2023-04-29T04:45:52;2.17;;;1.20;;
58360;SDS011;44164;44.954;10.068;2023-04-29T04:48:18;2.55;;;1.30;;
58360;SDS011;44164;44.954;10.068;2023-04-29T04:50:48;2.45;;;1.45;;
58360;SDS011;44164;44.954;10.068;2023-04-29T04:53:14;1.70;;;1.10;;
58360;SDS011;44164;44.954;10.068;2023-04-29T04:55:53;3.42;;;1.25;;
58360;SDS011;44164;44.954;10.068;2023-04-29T04:58:19;2.55;;;1.38;;
58360;SDS011;44164;44.954;10.068;2023-04-29T05:00:46;2.65;;;1.10;;
58360;SDS011;44164;44.954;10.068;2023-04-29T05:03:13;3.20;;;1.55;;
58360;SDS011;44164;44.954;10.068;2023-04-29T05:05:39;2.83;;;1.50;;
58360;SDS011;44164;44.954;10.068;2023-04-29T05:08:05;2.05;;;1.23;;
58360;SDS011;44164;44.954;10.068;2023-04-29T05:10:38;2.20;;;1.33;;
58360;SDS011;44164;44.954;10.068;2023-04-29T05:13:05;2.38;;;1.20;;
58360;SDS011;44164;44.954;10.068;2023-04-29T05:15:33;3.20;;;1.53;;
58360;SDS011;44164;44.954;10.068;2023-04-29T05:18:01;2.60;;;1.13;;
58360;SDS011;44164;44.954;10.068;2023-04-29T05:20:27;1.88;;;1.13;;
58360;SDS011;44164;44.954;10.068;2023-04-29T05:22:54;2.10;;;0.90;;
58360;SDS011;44164;44.954;10.068;2023-04-29T05:25:22;2.90;;;1.50;;
58360;SDS011;44164;44.954;10.068;2023-04-29T05:27:48;3.17;;;1.50;;
58360;SDS011;44164;44.954;10.068;2023-04-29T05:30:17;2.60;;;1.25;;
58360;SDS011;44164;44.954;10.068;2023-04-29T05:32:45;2.42;;;1.23;;
58360;SDS011;44164;44.954;10.068;2023-04-29T05:35:14;2.28;;;1.20;;
58360;SDS011;44164;44.954;10.068;2023-04-29T05:37:41;2.13;;;1.20;;
58360;SDS011;44164;44.954;10.068;2023-04-29T05:40:36;3.63;;;1.23;;
58360;SDS011;44164;44.954;10.068;2023-04-29T05:43:26;3.17;;;1.30;;
58360;SDS011;44164;44.954;10.068;2023-04-29T05:45:53;2.50;;;1.23;;
58360;SDS011;44164;44.954;10.068;2023-04-29T05:48:19;3.05;;;1.30;;
58360;SDS011;44164;44.954;10.068;2023-04-29T05:50:45;1.80;;;1.30;;
58360;SDS011;44164;44.954;10.068;2023-04-29T05:53:13;2.70;;;1.40;;
58360;SDS011;44164;44.954;10.068;2023-04-29T05:55:40;2.05;;;1.05;;
58360;SDS011;44164;44.954;10.068;2023-04-29T05:58:10;6.10;;;1.45;;
58360;SDS011;44164;44.954;10.068;2023-04-29T06:00:36;3.80;;;1.55;;
58360;SDS011;44164;44.954;10.068;2023-04-29T06:03:10;2.83;;;1.35;;
58360;SDS011;44164;44.954;10.068;2023-04-29T06:05:37;2.50;;;1.30;;
58360;SDS011;44164;44.954;10.068;2023-04-29T06:08:29;3.10;;;1.20;;
58360;SDS011;44164;44.954;10.068;2023-04-29T06:11:04;1.77;;;1.10;;
58360;SDS011;44164;44.954;10.068;2023-04-29T06:13:31;1.85;;;1.13;;
58360;SDS011;44164;44.954;10.068;2023-04-29T06:15:57;1.80;;;1.00;;
58360;SDS011;44164;44.954;10.068;2023-04-29T06:18:24;2.35;;;1.42;;
58360;SDS011;44164;44.954;10.068;2023-04-29T06:20:50;3.50;;;1.45;;
58360;SDS011;44164;44.954;10.068;2023-04-29T06:23:17;2.53;;;0.98;;
58360;SDS011;44164;44.954;10.068;2023-04-29T06:25:43;2.47;;;1.33;;
58360;SDS011;44164;44.954;10.068;2023-04-29T06:28:09;2.08;;;1.08;;
58360;SDS011;44164;44.954;10.068;2023-04-29T06:30:36;2.00;;;1.10;;
58360;SDS011;44164;44.954;10.068;2023-04-29T06:33:02;2.88;;;1.30;;
58360;SDS011;44164;44.954;10.068;2023-04-29T06:35:28;2.33;;;1.40;;
58360;SDS011;44164;44.954;10.068;2023-04-29T06:38:20;2.40;;;1.05;;
58360;SDS011;44164;44.954;10.068;2023-04-29T06:41:01;1.77;;;1.08;;
58360;SDS011;44164;44.954;10.068;2023-04-29T06:43:27;2.30;;;1.50;;
58360;SDS011;44164;44.954;10.068;2023-04-29T06:46:11;3.00;;;1.50;;
58360;SDS011;44164;44.954;10.068;2023-04-29T06:48:43;6.15;;;1.23;;
58360;SDS011;44164;44.954;10.068;2023-04-29T06:51:09;2.60;;;1.40;;
58360;SDS011;44164;44.954;10.068;2023-04-29T06:53:37;3.15;;;1.10;;
58360;SDS011;44164;44.954;10.068;2023-04-29T06:56:03;4.18;;;1.50;;
58360;SDS011;44164;44.954;10.068;2023-04-29T06:58:30;3.77;;;1.23;;
58360;SDS011;44164;44.954;10.068;2023-04-29T07:00:56;1.67;;;1.10;;
58360;SDS011;44164;44.954;10.068;2023-04-29T07:03:22;2.72;;;1.50;;
58360;SDS011;44164;44.954;10.068;2023-04-29T07:05:49;2.15;;;1.00;;
58360;SDS011;44164;44.954;10.068;2023-04-29T07:08:15;2.10;;;1.05;;
58360;SDS011;44164;44.954;10.068;2023-04-29T07:10:41;1.98;;;1.10;;
58360;SDS011;44164;44.954;10.068;2023-04-29T07:13:07;2.05;;;1.13;;
58360;SDS011;44164;44.954;10.068;2023-04-29T07:15:34;2.25;;;1.17;;
58360;SDS011;44164;44.954;10.068;2023-04-29T07:18:04;4.93;;;1.10;;
58360;SDS011;44164;44.954;10.068;2023-04-29T07:20:31;2.50;;;0.95;;
58360;SDS011;44164;44.954;10.068;2023-04-29T07:22:57;2.25;;;1.27;;
58360;SDS011;44164;44.954;10.068;2023-04-29T07:25:25;2.45;;;1.38;;
58360;SDS011;44164;44.954;10.068;2023-04-29T07:27:51;3.17;;;1.37;;
58360;SDS011;44164;44.954;10.068;2023-04-29T07:30:17;2.45;;;1.25;;
58360;SDS011;44164;44.954;10.068;2023-04-29T07:32:43;6.78;;;1.65;;
58360;SDS011;44164;44.954;10.068;2023-04-29T07:35:09;2.72;;;1.30;;
58360;SDS011;44164;44.954;10.068;2023-04-29T07:37:35;4.63;;;1.42;;
58360;SDS011;44164;44.954;10.068;2023-04-29T07:40:03;2.58;;;1.27;;
58360;SDS011;44164;44.954;10.068;2023-04-29T07:42:29;2.45;;;1.50;;
58360;SDS011;44164;44.954;10.068;2023-04-29T07:44:56;2.10;;;1.17;;
58360;SDS011;44164;44.954;10.068;2023-04-29T07:47:22;2.75;;;1.20;;
58360;SDS011;44164;44.954;10.068;2023-04-29T07:49:48;4.45;;;1.83;;
58360;SDS011;44164;44.954;10.068;2023-04-29T07:52:14;5.30;;;1.50;;
58360;SDS011;44164;44.954;10.068;2023-04-29T07:54:41;2.28;;;1.30;;
58360;SDS011;44164;44.954;10.068;2023-04-29T07:57:07;2.50;;;1.30;;
58360;SDS011;44164;44.954;10.068;2023-04-29T07:59:33;2.47;;;1.38;;
58360;SDS011;44164;44.954;10.068;2023-04-29T08:04:27;2.85;;;1.30;;
58360;SDS011;44164;44.954;10.068;2023-04-29T08:06:59;3.22;;;1.42;;
58360;SDS011;44164;44.954;10.068;2023-04-29T08:09:25;3.20;;;1.40;;
58360;SDS011;44164;44.954;10.068;2023-04-29T08:11:51;2.40;;;1.05;;
58360;SDS011;44164;44.954;10.068;2023-04-29T08:14:17;1.80;;;1.15;;
58360;SDS011;44164;44.954;10.068;2023-04-29T08:16:43;4.22;;;1.40;;
58360;SDS011;44164;44.954;10.068;2023-04-29T08:19:09;2.95;;;1.48;;
58360;SDS011;44164;44.954;10.068;2023-04-29T08:21:36;2.67;;;1.30;;
58360;SDS011;44164;44.954;10.068;2023-04-29T08:24:02;1.85;;;1.25;;
58360;SDS011;44164;44.954;10.068;2023-04-29T08:26:30;1.83;;;1.10;;
58360;SDS011;44164;44.954;10.068;2023-04-29T08:28:56;2.17;;;0.98;;
58360;SDS011;44164;44.954;10.068;2023-04-29T08:31:22;6.13;;;1.30;;
58360;SDS011;44164;44.954;10.068;2023-04-29T08:33:48;2.40;;;1.30;;
58360;SDS011;44164;44.954;10.068;2023-04-29T08:36:14;2.00;;;1.02;;
58360;SDS011;44164;44.954;10.068;2023-04-29T08:38:40;3.03;;;1.30;;
58360;SDS011;44164;44.954;10.068;2023-04-29T08:41:07;2.22;;;1.20;;
58360;SDS011;44164;44.954;10.068;2023-04-29T08:43:34;2.78;;;1.40;;
58360;SDS011;44164;44.954;10.068;2023-04-29T08:46:05;1.83;;;1.00;;
58360;SDS011;44164;44.954;10.068;2023-04-29T08:48:31;1.80;;;1.33;;
58360;SDS011;44164;44.954;10.068;2023-04-29T08:50:59;1.80;;;1.08;;
58360;SDS011;44164;44.954;10.068;2023-04-29T08:53:27;2.03;;;1.13;;
58360;SDS011;44164;44.954;10.068;2023-04-29T08:55:53;2.50;;;1.45;;
58360;SDS011;44164;44.954;10.068;2023-04-29T08:58:20;3.08;;;1.20;;
58360;SDS011;44164;44.954;10.068;2023-04-29T09:00:46;2.22;;;1.38;;
58360;SDS011;44164;44.954;10.068;2023-04-29T09:05:42;3.15;;;1.35;;
58360;SDS011;44164;44.954;10.068;2023-04-29T09:08:10;2.17;;;1.20;;
58360;SDS011;44164;44.954;10.068;2023-04-29T09:10:38;2.15;;;1.50;;
58360;SDS011;44164;44.954;10.068;2023-04-29T09:13:07;2.58;;;1.10;;
58360;SDS011;44164;44.954;10.068;2023-04-29T09:15:36;3.55;;;1.48;;
58360;SDS011;44164;44.954;10.068;2023-04-29T09:18:04;2.60;;;1.50;;
58360;SDS011;44164;44.954;10.068;2023-04-29T09:20:31;1.80;;;1.23;;
58360;SDS011;44164;44.954;10.068;2023-04-29T09:22:58;4.15;;;1.40;;
58360;SDS011;44164;44.954;10.068;2023-04-29T09:25:26;3.13;;;1.15;;
58360;SDS011;44164;44.954;10.068;2023-04-29T09:27:53;3.03;;;1.60;;
58360;SDS011;44164;44.954;10.068;2023-04-29T09:30:20;3.58;;;1.50;;
58360;SDS011;44164;44.954;10.068;2023-04-29T09:33:03;2.15;;;1.30;;
58360;SDS011;44164;44.954;10.068;2023-04-29T09:35:30;2.28;;;1.33;;
58360;SDS011;44164;44.954;10.068;2023-04-29T09:38:18;3.55;;;1.30;;
58360;SDS011;44164;44.954;10.068;2023-04-29T09:40:43;2.15;;;1.23;;
58360;SDS011;44164;44.954;10.068;2023-04-29T09:43:11;2.78;;;1.38;;
58360;SDS011;44164;44.954;10.068;2023-04-29T09:45:44;2.53;;;1.50;;
58360;SDS011;44164;44.954;10.068;2023-04-29T09:48:12;2.15;;;1.17;;
58360;SDS011;44164;44.954;10.068;2023-04-29T09:50:40;1.73;;;1.10;;
58360;SDS011;44164;44.954;10.068;2023-04-29T09:53:07;2.70;;;1.67;;
58360;SDS011;44164;44.954;10.068;2023-04-29T09:55:35;2.83;;;1.52;;
58360;SDS011;44164;44.954;10.068;2023-04-29T09:58:29;3.80;;;1.60;;
58360;SDS011;44164;44.954;10.068;2023-04-29T10:01:01;4.80;;;1.42;;
58360;SDS011;44164;44.954;10.068;2023-04-29T10:03:30;2.47;;;1.67;;
58360;SDS011;44164;44.954;10.068;2023-04-29T10:05:58;6.28;;;1.77;;
58360;SDS011;44164;44.954;10.068;2023-04-29T10:08:25;2.72;;;1.42;;
58360;SDS011;44164;44.954;10.068;2023-04-29T10:10:52;3.45;;;1.35;;
58360;SDS011;44164;44.954;10.068;2023-04-29T10:13:23;3.85;;;1.50;;
58360;SDS011;44164;44.954;10.068;2023-04-29T10:15:56;3.05;;;1.38;;
58360;SDS011;44164;44.954;10.068;2023-04-29T10:18:25;3.05;;;1.30;;
58360;SDS011;44164;44.954;10.068;2023-04-29T10:20:55;4.05;;;1.38;;
58360;SDS011;44164;44.954;10.068;2023-04-29T10:23:23;2.38;;;1.10;;
58360;SDS011;44164;44.954;10.068;2023-04-29T10:25:49;3.05;;;1.50;;
58360;SDS011;44164;44.954;10.068;2023-04-29T10:28:17;5.07;;;1.63;;
58360;SDS011;44164;44.954;10.068;2023-04-29T10:30:45;4.53;;;1.48;;
58360;SDS011;44164;44.954;10.068;2023-04-29T10:33:15;2.60;;;1.55;;
58360;SDS011;44164;44.954;10.068;2023-04-29T10:35:42;1.88;;;1.02;;
58360;SDS011;44164;44.954;10.068;2023-04-29T10:38:33;4.25;;;1.45;;
58360;SDS011;44164;44.954;10.068;2023-04-29T10:41:08;6.53;;;1.45;;
58360;SDS011;44164;44.954;10.068;2023-04-29T10:43:39;2.20;;;1.20;;
58360;SDS011;44164;44.954;10.068;2023-04-29T10:46:18;3.60;;;1.52;;
58360;SDS011;44164;44.954;10.068;2023-04-29T10:48:45;2.70;;;1.63;;
58360;SDS011;44164;44.954;10.068;2023-04-29T10:51:13;3.22;;;1.42;;
58360;SDS011;44164;44.954;10.068;2023-04-29T10:56:34;3.35;;;1.50;;
58360;SDS011;44164;44.954;10.068;2023-04-29T10:59:11;5.00;;;1.50;;
58360;SDS011;44164;44.954;10.068;2023-04-29T11:01:42;3.25;;;1.67;;
58360;SDS011;44164;44.954;10.068;2023-04-29T11:04:09;2.70;;;1.35;;
58360;SDS011;44164;44.954;10.068;2023-04-29T11:09:03;3.90;;;1.65;;
58360;SDS011;44164;44.954;10.068;2023-04-29T11:14:42;2.95;;;1.27;;
58360;SDS011;44164;44.954;10.068;2023-04-29T11:17:15;3.17;;;1.67;;
58360;SDS011;44164;44.954;10.068;2023-04-29T11:19:50;3.03;;;1.52;;
58360;SDS011;44164;44.954;10.068;2023-04-29T11:24:49;5.28;;;1.50;;
58360;SDS011;44164;44.954;10.068;2023-04-29T11:27:21;2.40;;;1.40;;
58360;SDS011;44164;44.954;10.068;2023-04-29T11:29:52;2.97;;;1.77;;
58360;SDS011;44164;44.954;10.068;2023-04-29T11:32:29;4.85;;;1.70;;
58360;SDS011;44164;44.954;10.068;2023-04-29T11:35:15;3.63;;;1.85;;
58360;SDS011;44164;44.954;10.068;2023-04-29T11:37:43;3.40;;;1.60;;
58360;SDS011;44164;44.954;10.068;2023-04-29T11:40:10;6.00;;;2.03;;
58360;SDS011;44164;44.954;10.068;2023-04-29T11:42:42;2.55;;;1.55;;
58360;SDS011;44164;44.954;10.068;2023-04-29T11:45:10;3.53;;;2.00;;
58360;SDS011;44164;44.954;10.068;2023-04-29T11:47:36;3.63;;;1.52;;
58360;SDS011;44164;44.954;10.068;2023-04-29T11:50:08;6.07;;;2.05;;
58360;SDS011;44164;44.954;10.068;2023-04-29T11:52:35;3.47;;;1.65;;
58360;SDS011;44164;44.954;10.068;2023-04-29T11:55:02;4.13;;;2.05;;
58360;SDS011;44164;44.954;10.068;2023-04-29T11:57:29;4.17;;;2.33;;
58360;SDS011;44164;44.954;10.068;2023-04-29T11:59:56;4.32;;;1.92;;
58360;SDS011;44164;44.954;10.068;2023-04-29T12:02:27;5.70;;;2.33;;
58360;SDS011;44164;44.954;10.068;2023-04-29T12:04:55;5.63;;;2.42;;
58360;SDS011;44164;44.954;10.068;2023-04-29T12:07:25;5.25;;;2.55;;
58360;SDS011;44164;44.954;10.068;2023-04-29T12:09:53;4.43;;;2.40;;
58360;SDS011;44164;44.954;10.068;2023-04-29T12:12:19;3.53;;;2.03;;
58360;SDS011;44164;44.954;10.068;2023-04-29T12:14:46;3.78;;;2.17;;
58360;SDS011;44164;44.954;10.068;2023-04-29T12:17:12;5.05;;;1.95;;
58360;SDS011;44164;44.954;10.068;2023-04-29T12:19:39;3.67;;;2.15;;
58360;SDS011;44164;44.954;10.068;2023-04-29T12:22:06;3.92;;;1.92;;
58360;SDS011;44164;44.954;10.068;2023-04-29T12:24:35;3.58;;;2.10;;
58360;SDS011;44164;44.954;10.068;2023-04-29T12:27:02;3.85;;;1.65;;
58360;SDS011;44164;44.954;10.068;2023-04-29T12:29:32;3.40;;;1.90;;
58360;SDS011;44164;44.954;10.068;2023-04-29T12:31:59;3.85;;;1.83;;
58360;SDS011;44164;44.954;10.068;2023-04-29T12:34:28;4.93;;;2.25;;
58360;SDS011;44164;44.954;10.068;2023-04-29T12:36:56;2.70;;;1.50;;
58360;SDS011;44164;44.954;10.068;2023-04-29T12:39:25;2.97;;;1.70;;
58360;SDS011;44164;44.954;10.068;2023-04-29T12:41:58;2.92;;;1.85;;
58360;SDS011;44164;44.954;10.068;2023-04-29T12:44:24;2.72;;;1.65;;
58360;SDS011;44164;44.954;10.068;2023-04-29T12:46:50;3.05;;;1.70;;
58360;SDS011;44164;44.954;10.068;2023-04-29T12:49:23;3.55;;;2.00;;
58360;SDS011;44164;44.954;10.068;2023-04-29T12:51:49;2.97;;;1.90;;
58360;SDS011;44164;44.954;10.068;2023-04-29T12:54:15;3.42;;;1.75;;
58360;SDS011;44164;44.954;10.068;2023-04-29T12:56:41;5.60;;;1.80;;
58360;SDS011;44164;44.954;10.068;2023-04-29T12:59:08;5.53;;;2.00;;
58360;SDS011;44164;44.954;10.068;2023-04-29T13:01:35;2.85;;;1.70;;
58360;SDS011;44164;44.954;10.068;2023-04-29T13:04:01;3.55;;;2.10;;
58360;SDS011;44164;44.954;10.068;2023-04-29T13:06:28;3.28;;;1.90;;
58360;SDS011;44164;44.954;10.068;2023-04-29T13:08:56;2.95;;;1.70;;
58360;SDS011;44164;44.954;10.068;2023-04-29T13:11:22;3.03;;;1.80;;
58360;SDS011;44164;44.954;10.068;2023-04-29T13:13:48;5.47;;;2.00;;
58360;SDS011;44164;44.954;10.068;2023-04-29T13:16:14;4.05;;;2.17;;
58360;SDS011;44164;44.954;10.068;2023-04-29T13:18:41;3.15;;;1.90;;
58360;SDS011;44164;44.954;10.068;2023-04-29T13:21:07;4.55;;;2.35;;
58360;SDS011;44164;44.954;10.068;2023-04-29T13:23:33;4.90;;;1.70;;
58360;SDS011;44164;44.954;10.068;2023-04-29T13:25:59;2.45;;;1.90;;
58360;SDS011;44164;44.954;10.068;2023-04-29T13:28:26;3.40;;;1.80;;
58360;SDS011;44164;44.954;10.068;2023-04-29T13:30:52;3.72;;;1.85;;
58360;SDS011;44164;44.954;10.068;2023-04-29T13:33:19;6.53;;;2.10;;
58360;SDS011;44164;44.954;10.068;2023-04-29T13:35:45;3.85;;;1.88;;
58360;SDS011;44164;44.954;10.068;2023-04-29T13:38:12;3.42;;;2.00;;
58360;SDS011;44164;44.954;10.068;2023-04-29T13:40:39;2.78;;;1.70;;
58360;SDS011;44164;44.954;10.068;2023-04-29T13:43:05;4.90;;;1.90;;
58360;SDS011;44164;44.954;10.068;2023-04-29T13:45:32;3.72;;;2.08;;
58360;SDS011;44164;44.954;10.068;2023-04-29T13:48:00;3.72;;;2.08;;
58360;SDS011;44164;44.954;10.068;2023-04-29T13:50:26;3.95;;;1.95;;
58360;SDS011;44164;44.954;10.068;2023-04-29T13:52:52;2.55;;;1.60;;
58360;SDS011;44164;44.954;10.068;2023-04-29T13:55:18;2.95;;;1.63;;
58360;SDS011;44164;44.954;10.068;2023-04-29T13:57:45;2.80;;;1.55;;
58360;SDS011;44164;44.954;10.068;2023-04-29T14:00:12;3.03;;;1.80;;
58360;SDS011;44164;44.954;10.068;2023-04-29T14:02:39;3.67;;;1.90;;
58360;SDS011;44164;44.954;10.068;2023-04-29T14:05:05;3.55;;;1.88;;
58360;SDS011;44164;44.954;10.068;2023-04-29T14:07:32;4.10;;;2.28;;
58360;SDS011;44164;44.954;10.068;2023-04-29T14:09:58;4.30;;;2.13;;
58360;SDS011;44164;44.954;10.068;2023-04-29T14:12:24;3.58;;;1.80;;
58360;SDS011;44164;44.954;10.068;2023-04-29T14:14:50;3.70;;;2.10;;
58360;SDS011;44164;44.954;10.068;2023-04-29T14:17:16;3.38;;;2.08;;
58360;SDS011;44164;44.954;10.068;2023-04-29T14:19:42;4.78;;;1.80;;
58360;SDS011;44164;44.954;10.068;2023-04-29T14:22:08;3.03;;;1.70;;
58360;SDS011;44164;44.954;10.068;2023-04-29T14:24:34;3.95;;;2.13;;
58360;SDS011;44164;44.954;10.068;2023-04-29T14:27:00;3.20;;;2.00;;
58360;SDS011;44164;44.954;10.068;2023-04-29T14:29:26;3.35;;;1.73;;
58360;SDS011;44164;44.954;10.068;2023-04-29T14:31:54;2.22;;;1.70;;
58360;SDS011;44164;44.954;10.068;2023-04-29T14:34:20;2.55;;;1.88;;
58360;SDS011;44164;44.954;10.068;2023-04-29T14:36:46;3.38;;;2.50;;
58360;SDS011;44164;44.954;10.068;2023-04-29T14:39:13;2.83;;;1.73;;
58360;SDS011;44164;44.954;10.068;2023-04-29T14:41:39;4.05;;;2.30;;
58360;SDS011;44164;44.954;10.068;2023-04-29T14:44:05;2.17;;;1.60;;
58360;SDS011;44164;44.954;10.068;2023-04-29T14:46:31;7.15;;;2.28;;
58360;SDS011;44164;44.954;10.068;2023-04-29T14:48:58;2.22;;;1.52;;
58360;SDS011;44164;44.954;10.068;2023-04-29T14:51:24;3.50;;;1.80;;
58360;SDS011;44164;44.954;10.068;2023-04-29T14:53:50;3.38;;;2.33;;
58360;SDS011;44164;44.954;10.068;2023-04-29T14:56:17;5.03;;;2.30;;
58360;SDS011;44164;44.954;10.068;2023-04-29T14:58:43;3.22;;;2.13;;
58360;SDS011;44164;44.954;10.068;2023-04-29T15:01:09;3.55;;;2.00;;
58360;SDS011;44164;44.954;10.068;2023-04-29T15:03:36;3.38;;;2.03;;
58360;SDS011;44164;44.954;10.068;2023-04-29T15:06:02;3.72;;;2.47;;
58360;SDS011;44164;44.954;10.068;2023-04-29T15:08:29;3.72;;;2.13;;
58360;SDS011;44164;44.954;10.068;2023-04-29T15:10:55;2.88;;;1.92;;